Miami, Florida
Traffic Map
Current Weather Conditions
Miami, Florida
Broken Clouds
Broken Clouds
81°
Feels Like: 84°
Wind Chill: 81° Ceiling: 25000
Heat Index: 84° Visibility: 10mi
Dew Point: 70° Wind: 0mph
Humidity: 69% Direction: ° ()
Pressure: 29.92in Gusts: 0mph
Raw Report DataKMIA 312153Z 00000KT 10SM FEW025 FEW140 BKN250 27/21 A2992 RMK AO2 SLP132 CB DSNT SE-S T02720211
Traffic Incident Summary
Active as of:
Severity:
Category:
InformationThere was an issue retrieving the traffic information for this location. Please try a different location or try again shortly.
Advertisements
Track Severe Weather on mobile